Time;durP1;ratioP1;P1;durP2;ratioP2;P2;SDS_P1;SDS_P2;PMS_P1;PMS_P2;Temp;Humidity;BMP_temperature;BMP_pressure;BME280_temperature;BME280_humidity;BME280_pressure;Samples;Min_cycle;Max_cycle;Signal;HPM_P1;HPM_P2
2021/07/17 00:01:11;;;;;;;38.17;26.10;;;16.50;99.90;;;;;;5022144;28;20476;-71
2021/07/17 00:03:40;;;;;;;42.00;27.73;;;16.50;99.90;;;;;;5026288;28;20510;-68
2021/07/17 00:06:07;;;;;;;37.43;26.80;;;16.50;99.90;;;;;;5025684;28;20544;-68
2021/07/17 00:08:34;;;;;;;43.40;28.13;;;16.50;99.90;;;;;;5023983;28;21361;-71
2021/07/17 00:11:04;;;;;;;37.30;27.60;;;16.50;99.90;;;;;;5027739;28;20503;-68
2021/07/17 00:13:31;;;;;;;32.90;27.43;;;16.40;99.90;;;;;;5025012;28;20467;-69
2021/07/17 00:15:58;;;;;;;38.60;27.57;;;16.40;99.90;;;;;;5021567;28;20461;-68
2021/07/17 00:18:26;;;;;;;40.10;25.90;;;16.40;99.90;;;;;;5025047;28;20473;-67
2021/07/17 00:20:55;;;;;;;36.27;24.33;;;16.50;99.90;;;;;;5022461;28;20468;-68
2021/07/17 00:23:22;;;;;;;48.00;25.93;;;16.60;99.90;;;;;;5023634;28;20460;-69
2021/07/17 00:25:53;;;;;;;35.00;25.27;;;16.60;99.90;;;;;;5025217;28;20457;-70
2021/07/17 00:28:20;;;;;;;32.30;24.17;;;16.60;99.90;;;;;;5024985;28;20798;-68
2021/07/17 00:30:49;;;;;;;37.43;26.00;;;16.60;99.90;;;;;;5024739;28;20470;-68
2021/07/17 00:33:16;;;;;;;26.40;23.13;;;16.70;99.90;;;;;;5025689;28;20467;-68
2021/07/17 00:35:44;;;;;;;37.47;24.03;;;16.70;99.90;;;;;;5022864;28;20483;-68
2021/07/17 00:38:14;;;;;;;40.50;25.50;;;16.70;99.90;;;;;;5025094;28;20488;-68
2021/07/17 00:40:41;;;;;;;33.47;24.03;;;16.70;99.90;;;;;;5022812;28;20496;-68
2021/07/17 00:43:08;;;;;;;44.07;23.30;;;16.70;99.90;;;;;;5020956;28;20457;-70
2021/07/17 00:45:36;;;;;;;35.73;25.00;;;16.70;99.90;;;;;;5022888;28;20465;-68
2021/07/17 00:48:03;;;;;;;39.50;26.23;;;16.70;99.90;;;;;;5027643;28;20811;-69
2021/07/17 00:50:30;;;;;;;28.70;24.70;;;16.70;99.90;;;;;;5024651;28;20472;-71
2021/07/17 00:52:57;;;;;;;29.67;23.93;;;16.80;99.90;;;;;;5023373;28;20489;-68
2021/07/17 00:55:28;;;;;;;38.83;25.63;;;16.70;99.90;;;;;;5024198;28;20464;-68
2021/07/17 00:57:56;;;;;;;36.70;25.60;;;16.70;99.90;;;;;;5025241;28;20466;-68
2021/07/17 01:00:23;;;;;;;39.17;25.27;;;16.70;99.90;;;;;;5025650;28;20457;-68
2021/07/17 01:02:53;;;;;;;35.77;25.67;;;16.70;99.90;;;;;;5026108;28;20955;-73
2021/07/17 01:05:20;;;;;;;31.37;24.30;;;16.80;99.90;;;;;;5024374;28;20457;-72
2021/07/17 01:07:48;;;;;;;37.13;26.13;;;16.80;99.90;;;;;;5024165;28;20463;-68
2021/07/17 01:10:18;;;;;;;28.40;24.73;;;16.90;99.90;;;;;;5022744;28;20459;-68
2021/07/17 01:12:47;;;;;;;38.63;25.90;;;17.00;99.90;;;;;;5022023;28;20493;-68
2021/07/17 01:15:14;;;;;;;39.47;25.40;;;17.00;99.90;;;;;;5022353;28;20471;-68
2021/07/17 01:17:41;;;;;;;36.83;26.00;;;17.00;99.90;;;;;;5018517;28;20460;-68
2021/07/17 01:20:11;;;;;;;45.90;24.80;;;17.00;99.90;;;;;;5021442;28;20465;-68
2021/07/17 01:22:43;;;;;;;40.33;23.90;;;17.00;99.90;;;;;;5021106;28;20493;-70
2021/07/17 01:25:13;;;;;;;41.63;25.53;;;17.00;99.90;;;;;;5020135;28;20465;-70
2021/07/17 01:27:41;;;;;;;32.60;24.00;;;17.10;99.90;;;;;;5019111;28;20457;-69
2021/07/17 01:30:11;;;;;;;33.00;23.93;;;17.00;99.90;;;;;;5026379;28;20548;-68
2021/07/17 01:32:38;;;;;;;48.37;24.37;;;17.00;99.90;;;;;;5023147;28;20476;-73
2021/07/17 01:35:06;;;;;;;43.70;25.80;;;17.10;99.90;;;;;;5022733;28;20479;-68
2021/07/17 01:37:33;;;;;;;46.33;25.93;;;17.00;99.90;;;;;;5019731;28;20488;-70
2021/07/17 01:40:04;;;;;;;36.97;26.37;;;17.10;99.90;;;;;;5015294;28;20476;-68
2021/07/17 01:42:34;;;;;;;38.47;25.50;;;17.10;99.90;;;;;;5022227;28;20460;-70
2021/07/17 01:45:01;;;;;;;40.43;25.50;;;17.10;99.90;;;;;;5027684;28;20465;-70
2021/07/17 01:47:28;;;;;;;36.90;24.20;;;17.00;99.90;;;;;;5021777;28;20471;-68
2021/07/17 01:49:55;;;;;;;35.90;24.20;;;17.10;99.90;;;;;;5019690;28;20469;-68
2021/07/17 01:52:22;;;;;;;34.37;23.60;;;17.30;99.90;;;;;;5024108;28;21038;-68
2021/07/17 01:54:49;;;;;;;36.70;24.57;;;17.30;99.90;;;;;;5021786;28;20454;-70
2021/07/17 01:57:19;;;;;;;31.03;25.00;;;17.20;99.90;;;;;;5022380;28;20452;-70
2021/07/17 01:59:46;;;;;;;30.70;24.50;;;17.30;99.90;;;;;;5023664;28;20969;-68
2021/07/17 02:02:14;;;;;;;38.17;24.20;;;17.20;99.90;;;;;;5021635;28;20455;-68
2021/07/17 02:04:41;;;;;;;38.10;23.27;;;17.20;99.90;;;;;;5023185;28;20468;-68
2021/07/17 02:07:09;;;;;;;40.80;25.30;;;17.10;99.90;;;;;;5018815;28;21148;-67
2021/07/17 02:09:36;;;;;;;39.23;25.07;;;17.10;99.90;;;;;;5017509;28;20517;-68
2021/07/17 02:12:04;;;;;;;41.83;25.30;;;17.20;99.90;;;;;;5022054;28;20487;-68
2021/07/17 02:14:37;;;;;;;41.90;25.23;;;17.20;99.90;;;;;;5021143;28;20971;-71
2021/07/17 02:17:05;;;;;;;36.70;24.83;;;17.20;99.90;;;;;;5017242;28;20457;-67
2021/07/17 02:19:33;;;;;;;41.53;24.17;;;17.20;99.90;;;;;;5023745;28;20468;-70
2021/07/17 02:22:01;;;;;;;27.37;23.80;;;17.20;99.90;;;;;;5024203;28;20831;-68
2021/07/17 02:24:28;;;;;;;34.43;25.50;;;17.20;99.90;;;;;;5026161;28;20464;-69
2021/07/17 02:26:54;;;;;;;35.57;24.00;;;17.10;99.90;;;;;;5026110;28;20468;-72
2021/07/17 02:29:23;;;;;;;40.90;24.63;;;17.10;99.90;;;;;;5024512;28;20469;-68
2021/07/17 02:31:51;;;;;;;38.90;24.90;;;17.10;99.90;;;;;;5027164;28;20489;-69
2021/07/17 02:34:18;;;;;;;38.70;25.10;;;17.10;99.90;;;;;;5019162;28;20460;-69
2021/07/17 02:36:45;;;;;;;32.43;24.53;;;17.10;99.90;;;;;;5025357;28;20487;-68
2021/07/17 02:39:12;;;;;;;37.93;24.63;;;17.10;99.90;;;;;;5022717;28;20469;-70
2021/07/17 02:41:38;;;;;;;44.07;25.13;;;17.10;99.90;;;;;;5024484;28;20572;-70
2021/07/17 02:44:06;;;;;;;49.13;25.10;;;17.10;99.90;;;;;;5022700;28;20468;-68
2021/07/17 02:46:34;;;;;;;30.80;24.17;;;17.20;99.90;;;;;;5027022;28;20461;-70
2021/07/17 02:49:02;;;;;;;52.30;25.53;;;17.20;99.90;;;;;;5017801;28;20462;-69
2021/07/17 02:51:29;;;;;;;33.17;24.40;;;17.20;99.90;;;;;;5025100;28;20485;-67
2021/07/17 02:53:56;;;;;;;34.73;22.87;;;17.20;99.90;;;;;;5023019;28;20470;-67
2021/07/17 02:56:23;;;;;;;38.83;22.97;;;17.20;99.90;;;;;;5022344;28;20957;-68
2021/07/17 02:58:50;;;;;;;39.77;23.53;;;17.20;99.90;;;;;;5025629;28;20543;-67
2021/07/17 03:01:17;;;;;;;36.60;23.37;;;17.10;99.90;;;;;;5019752;28;20827;-67
2021/07/17 03:03:44;;;;;;;38.53;21.90;;;17.10;99.90;;;;;;5026638;28;20465;-67
2021/07/17 03:06:14;;;;;;;37.93;23.20;;;17.10;99.90;;;;;;5018883;28;20552;-67
2021/07/17 03:08:41;;;;;;;28.20;22.17;;;17.10;99.90;;;;;;5021823;28;20986;-68
2021/07/17 03:11:08;;;;;;;35.40;22.70;;;17.10;99.90;;;;;;5022348;28;20468;-69
2021/07/17 03:13:35;;;;;;;39.77;24.53;;;17.10;99.90;;;;;;5022317;28;20490;-67
2021/07/17 03:16:02;;;;;;;37.50;24.30;;;17.10;99.90;;;;;;5025413;28;20468;-70
2021/07/17 03:18:29;;;;;;;36.73;23.13;;;17.10;99.90;;;;;;5019814;28;20992;-67
2021/07/17 03:20:56;;;;;;;38.60;23.50;;;17.10;99.90;;;;;;5025047;28;20472;-68
2021/07/17 03:23:24;;;;;;;41.53;23.50;;;17.10;99.90;;;;;;5021875;28;20456;-70
2021/07/17 03:25:51;;;;;;;42.23;23.97;;;17.10;99.90;;;;;;5027696;28;20475;-67
2021/07/17 03:28:18;;;;;;;44.57;23.27;;;17.10;99.90;;;;;;5025459;28;20468;-69
2021/07/17 03:30:45;;;;;;;44.93;24.67;;;17.10;99.90;;;;;;5019415;28;20989;-69
2021/07/17 03:33:12;;;;;;;38.00;23.80;;;17.10;99.90;;;;;;5020186;28;20488;-68
2021/07/17 03:35:39;;;;;;;39.43;22.23;;;17.10;99.90;;;;;;5025776;28;20452;-68
2021/07/17 03:38:05;;;;;;;34.63;23.57;;;17.10;99.90;;;;;;5021255;28;20480;-68
2021/07/17 03:40:33;;;;;;;48.60;24.60;;;17.20;99.90;;;;;;5025032;28;20491;-68
2021/07/17 03:43:00;;;;;;;39.40;22.67;;;17.20;99.90;;;;;;5021234;28;20448;-68
2021/07/17 03:45:29;;;;;;;29.10;20.87;;;17.20;99.90;;;;;;5018758;28;20560;-70
2021/07/17 03:47:56;;;;;;;42.23;22.30;;;17.20;99.90;;;;;;5026192;28;20892;-69
2021/07/17 03:50:22;;;;;;;49.50;23.60;;;17.10;99.90;;;;;;5023832;28;20470;-69
2021/07/17 03:52:49;;;;;;;42.97;22.40;;;17.10;99.90;;;;;;5024976;28;20489;-68
2021/07/17 03:55:17;;;;;;;38.03;22.87;;;17.10;99.90;;;;;;5024547;28;21000;-68
2021/07/17 03:57:46;;;;;;;39.07;23.10;;;17.10;99.90;;;;;;5022815;28;20461;-72
2021/07/17 04:00:15;;;;;;;39.27;22.53;;;17.10;99.90;;;;;;5026764;28;20523;-68
2021/07/17 04:02:44;;;;;;;37.53;21.83;;;17.00;99.90;;;;;;5022214;28;20470;-68
2021/07/17 04:05:12;;;;;;;33.70;21.67;;;17.10;99.90;;;;;;5021029;28;20462;-70
2021/07/17 04:07:40;;;;;;;38.83;22.70;;;17.10;99.90;;;;;;5022460;28;20456;-68
2021/07/17 04:10:10;;;;;;;39.30;23.80;;;17.10;99.90;;;;;;5025237;28;20465;-68
2021/07/17 04:12:37;;;;;;;46.90;24.13;;;17.00;99.90;;;;;;5022361;28;20817;-69
2021/07/17 04:15:08;;;;;;;41.63;23.13;;;17.10;99.90;;;;;;5014741;28;20471;-68
2021/07/17 04:17:34;;;;;;;40.80;23.43;;;17.00;99.90;;;;;;5024772;28;20996;-68
2021/07/17 04:20:01;;;;;;;42.13;23.37;;;17.10;99.90;;;;;;5024223;28;20464;-68
2021/07/17 04:22:28;;;;;;;42.60;22.23;;;17.20;99.90;;;;;;5022823;28;20934;-71
2021/07/17 04:24:55;;;;;;;43.77;22.90;;;17.20;99.90;;;;;;5021443;28;20464;-68
2021/07/17 04:27:22;;;;;;;41.80;22.83;;;17.30;99.90;;;;;;5025618;28;20475;-71
2021/07/17 04:29:49;;;;;;;38.83;22.17;;;17.10;99.90;;;;;;5024174;28;20456;-72
2021/07/17 04:32:20;;;;;;;47.93;23.90;;;17.20;99.90;;;;;;5020184;28;20575;-69
2021/07/17 04:34:47;;;;;;;41.30;23.03;;;17.20;99.90;;;;;;5019421;28;20469;-72
2021/07/17 04:37:16;;;;;;;30.60;22.97;;;17.20;99.90;;;;;;5023034;28;20513;-68
2021/07/17 04:39:43;;;;;;;35.17;22.63;;;17.20;99.90;;;;;;5022606;28;20484;-72
2021/07/17 04:42:10;;;;;;;33.80;22.50;;;17.20;99.90;;;;;;5022029;28;20456;-71
2021/07/17 04:44:37;;;;;;;40.30;23.20;;;17.20;99.90;;;;;;5020451;28;20465;-74
2021/07/17 04:47:04;;;;;;;39.13;24.03;;;17.20;99.90;;;;;;5023963;28;20465;-70
2021/07/17 04:49:33;;;;;;;30.53;23.73;;;17.20;99.90;;;;;;5020403;28;20502;-69
2021/07/17 04:52:00;;;;;;;34.57;22.43;;;17.30;99.90;;;;;;5019083;28;20465;-73
2021/07/17 04:54:27;;;;;;;40.80;22.07;;;17.30;99.90;;;;;;5021963;28;20457;-69
2021/07/17 04:56:54;;;;;;;43.77;24.00;;;17.40;99.90;;;;;;5023716;28;20466;-72
2021/07/17 04:59:22;;;;;;;37.23;23.43;;;17.40;99.90;;;;;;5020735;28;20485;-70
2021/07/17 05:01:50;;;;;;;34.50;22.30;;;17.50;99.90;;;;;;5022253;28;20466;-69
2021/07/17 05:04:17;;;;;;;38.63;22.10;;;17.50;99.90;;;;;;5015773;28;20468;-71
2021/07/17 05:06:47;;;;;;;40.00;23.70;;;17.50;99.90;;;;;;5021812;28;20472;-72
2021/07/17 05:09:14;;;;;;;35.67;23.00;;;17.50;99.90;;;;;;5023460;28;20456;-71
2021/07/17 05:11:41;;;;;;;50.50;23.20;;;17.50;99.90;;;;;;5024127;28;20469;-72
2021/07/17 05:14:07;;;;;;;40.40;22.37;;;17.60;99.90;;;;;;5020540;28;20532;-73
2021/07/17 05:16:35;;;;;;;30.43;23.37;;;17.60;99.90;;;;;;5025187;28;20890;-69
2021/07/17 05:19:03;;;;;;;32.50;21.67;;;17.70;99.90;;;;;;5020483;28;20472;-72
2021/07/17 05:21:31;;;;;;;45.70;23.50;;;17.80;99.90;;;;;;5019442;28;20468;-73
2021/07/17 05:23:59;;;;;;;30.50;20.83;;;17.90;99.90;;;;;;5019887;28;20497;-69
2021/07/17 05:26:26;;;;;;;36.27;23.50;;;18.00;99.90;;;;;;5016905;28;20476;-69
2021/07/17 05:28:53;;;;;;;43.40;25.00;;;18.10;99.90;;;;;;5025135;28;20471;-71
2021/07/17 05:31:20;;;;;;;35.33;22.67;;;18.00;99.90;;;;;;5015263;28;20556;-71
2021/07/17 05:33:47;;;;;;;42.47;23.67;;;18.10;99.90;;;;;;5020438;28;21021;-71
2021/07/17 05:36:14;;;;;;;31.30;21.70;;;18.20;99.90;;;;;;5019515;28;20465;-70
2021/07/17 05:38:41;;;;;;;28.83;21.87;;;18.20;99.90;;;;;;5023218;28;20817;-70
2021/07/17 05:41:10;;;;;;;43.13;22.90;;;18.30;99.90;;;;;;5021274;28;20856;-69
2021/07/17 05:43:37;;;;;;;36.27;23.23;;;18.30;99.90;;;;;;5017988;28;20472;-69
2021/07/17 05:46:04;;;;;;;26.30;20.00;;;18.30;99.90;;;;;;5020910;28;20543;-69
2021/07/17 05:48:31;;;;;;;24.83;22.10;;;18.20;99.90;;;;;;5020281;28;20543;-69
2021/07/17 05:50:58;;;;;;;38.80;21.50;;;18.10;99.90;;;;;;5020171;28;20492;-71
2021/07/17 05:53:25;;;;;;;29.57;20.53;;;18.20;99.90;;;;;;5017205;28;20504;-70
2021/07/17 05:55:51;;;;;;;29.10;21.40;;;18.20;99.90;;;;;;5021853;28;20471;-72
2021/07/17 05:58:20;;;;;;;29.27;20.60;;;18.10;99.90;;;;;;5022822;28;20522;-71
2021/07/17 06:00:47;;;;;;;28.03;20.97;;;18.20;99.90;;;;;;5023332;28;20974;-70
2021/07/17 06:03:14;;;;;;;30.33;20.77;;;18.30;99.90;;;;;;5022750;28;20471;-69
2021/07/17 06:05:43;;;;;;;38.10;22.50;;;18.20;99.90;;;;;;5018978;28;20467;-69
2021/07/17 06:08:10;;;;;;;36.67;22.40;;;18.20;99.90;;;;;;5021300;28;20576;-70
2021/07/17 06:10:37;;;;;;;30.20;21.30;;;18.30;99.90;;;;;;5017395;28;20464;-70
2021/07/17 06:13:06;;;;;;;28.63;21.33;;;18.20;99.90;;;;;;5016135;28;20487;-71
2021/07/17 06:15:35;;;;;;;36.43;22.57;;;18.30;99.90;;;;;;5023120;28;20521;-71
2021/07/17 06:18:01;;;;;;;32.57;21.27;;;18.30;99.90;;;;;;5022093;28;20956;-71
2021/07/17 06:20:29;;;;;;;28.57;21.60;;;18.30;99.90;;;;;;5021799;28;21014;-72
2021/07/17 06:22:56;;;;;;;30.87;21.23;;;18.20;99.90;;;;;;5019124;28;20478;-70
2021/07/17 06:25:23;;;;;;;27.87;21.67;;;18.30;99.90;;;;;;5023805;28;20481;-70
2021/07/17 06:27:50;;;;;;;27.07;20.63;;;18.20;99.90;;;;;;5024085;28;20456;-72
2021/07/17 06:30:18;;;;;;;29.00;20.30;;;18.20;99.90;;;;;;5019660;28;20473;-70
2021/07/17 06:32:47;;;;;;;31.47;21.97;;;18.30;99.90;;;;;;5021059;28;20492;-69
2021/07/17 06:35:14;;;;;;;28.83;20.37;;;18.30;99.90;;;;;;5018294;28;20540;-69
2021/07/17 06:37:42;;;;;;;28.53;22.00;;;18.40;99.90;;;;;;5020074;28;20489;-72
2021/07/17 06:40:11;;;;;;;30.57;21.10;;;18.50;99.90;;;;;;5023726;28;20539;-70
2021/07/17 06:42:42;;;;;;;23.43;21.00;;;18.60;99.90;;;;;;5023796;28;20479;-68
2021/07/17 06:45:10;;;;;;;29.47;21.97;;;18.60;99.90;;;;;;5027177;28;20472;-70
2021/07/17 06:47:38;;;;;;;25.37;21.10;;;18.60;99.90;;;;;;5021934;28;20468;-69
2021/07/17 06:50:08;;;;;;;25.70;21.73;;;18.80;99.90;;;;;;5020791;28;20483;-70
2021/07/17 06:52:35;;;;;;;28.80;22.13;;;19.00;99.90;;;;;;5024366;28;20453;-72
2021/07/17 06:55:03;;;;;;;27.67;22.10;;;19.20;99.90;;;;;;5018378;28;20460;-73
2021/07/17 06:57:30;;;;;;;22.97;20.77;;;19.20;99.90;;;;;;5021772;28;20465;-70
2021/07/17 06:59:56;;;;;;;24.53;21.93;;;19.10;99.90;;;;;;5018394;28;20464;-73
2021/07/17 07:02:24;;;;;;;24.30;21.93;;;19.10;99.90;;;;;;5022747;28;20695;-73
2021/07/17 07:04:50;;;;;;;27.27;20.60;;;18.90;99.90;;;;;;5016420;28;20462;-70
2021/07/17 07:07:20;;;;;;;23.90;21.40;;;18.90;99.90;;;;;;5020136;28;20465;-73
2021/07/17 07:09:47;;;;;;;27.70;21.80;;;19.30;99.90;;;;;;5028930;28;20457;-71
2021/07/17 07:12:15;;;;;;;27.27;22.37;;;19.50;99.90;;;;;;5024326;28;20464;-71
2021/07/17 07:14:41;;;;;;;24.03;21.67;;;19.50;99.90;;;;;;5019846;28;20493;-72
2021/07/17 07:17:08;;;;;;;33.80;21.73;;;19.40;99.90;;;;;;5024794;28;20460;-70
2021/07/17 07:19:35;;;;;;;37.50;22.20;;;19.50;99.90;;;;;;5020085;28;20461;-72
2021/07/17 07:22:03;;;;;;;28.10;21.70;;;19.40;99.90;;;;;;5017613;28;20817;-70
2021/07/17 07:24:32;;;;;;;33.57;22.33;;;19.30;99.90;;;;;;5021180;28;20461;-71
2021/07/17 07:26:59;;;;;;;35.20;22.97;;;19.20;99.90;;;;;;5020328;28;20473;-71
2021/07/17 07:29:28;;;;;;;25.77;21.50;;;19.40;99.90;;;;;;5020739;28;21148;-71
2021/07/17 07:31:56;;;;;;;24.73;22.23;;;19.60;99.90;;;;;;5024112;28;20460;-72
2021/07/17 07:34:22;;;;;;;28.13;21.20;;;19.60;99.90;;;;;;5026280;28;20523;-71
2021/07/17 07:36:50;;;;;;;26.23;21.50;;;19.60;99.90;;;;;;5020070;28;20491;-69
2021/07/17 07:39:17;;;;;;;27.70;21.47;;;19.50;99.90;;;;;;5024256;28;20998;-74
2021/07/17 07:41:46;;;;;;;27.07;22.00;;;19.60;99.90;;;;;;5022040;28;20472;-70
2021/07/17 07:44:13;;;;;;;29.00;22.40;;;19.60;99.90;;;;;;5018300;28;20981;-70
2021/07/17 07:46:41;;;;;;;35.80;22.70;;;19.60;99.90;;;;;;5025341;28;20461;-70
2021/07/17 07:49:08;;;;;;;26.20;23.47;;;19.40;99.90;;;;;;5021799;28;21002;-71
2021/07/17 07:51:35;;;;;;;28.97;23.13;;;19.50;99.90;;;;;;5024135;28;20552;-73
2021/07/17 07:54:02;;;;;;;26.50;22.20;;;19.60;99.90;;;;;;5022798;28;20826;-70
2021/07/17 07:56:29;;;;;;;25.43;22.77;;;19.90;99.90;;;;;;5020489;28;20838;-71
2021/07/17 07:58:57;;;;;;;25.67;21.70;;;19.90;99.90;;;;;;5017514;28;20480;-72
2021/07/17 08:01:24;;;;;;;25.93;22.43;;;19.70;99.90;;;;;;5025546;28;20466;-70
2021/07/17 08:03:52;;;;;;;30.40;23.37;;;19.40;99.90;;;;;;5026947;28;20468;-70
2021/07/17 08:06:19;;;;;;;30.70;23.57;;;19.40;99.90;;;;;;5023715;28;20471;-71
2021/07/17 08:08:46;;;;;;;36.77;23.10;;;19.60;99.90;;;;;;5022003;28;20471;-70
2021/07/17 08:11:12;;;;;;;42.37;23.27;;;19.60;99.90;;;;;;5018809;28;20472;-71
2021/07/17 08:13:39;;;;;;;24.93;21.23;;;19.80;99.90;;;;;;5023258;28;20497;-70
2021/07/17 08:16:08;;;;;;;26.00;21.87;;;20.00;99.90;;;;;;5023666;28;20800;-70
2021/07/17 08:18:34;;;;;;;41.77;23.20;;;20.20;99.90;;;;;;5016787;28;20556;-70
2021/07/17 08:21:01;;;;;;;24.30;21.70;;;20.40;99.90;;;;;;5023792;28;20477;-70
2021/07/17 08:23:29;;;;;;;25.53;22.13;;;20.80;99.90;;;;;;5024724;28;20465;-70
2021/07/17 08:25:56;;;;;;;23.87;21.67;;;21.00;99.90;;;;;;5025602;28;20468;-71
2021/07/17 08:28:23;;;;;;;23.87;21.70;;;21.00;99.90;;;;;;5021248;28;20475;-71
2021/07/17 08:30:49;;;;;;;22.37;19.90;;;21.20;99.90;;;;;;5021893;28;20836;-71
2021/07/17 08:33:18;;;;;;;30.17;19.90;;;21.00;99.90;;;;;;5017667;28;20969;-72
2021/07/17 08:35:46;;;;;;;23.70;21.20;;;21.10;99.90;;;;;;5023523;28;20465;-74
2021/07/17 08:38:13;;;;;;;27.40;20.77;;;21.60;99.90;;;;;;5025396;28;20584;-70
2021/07/17 08:40:40;;;;;;;31.47;21.63;;;21.40;99.90;;;;;;5019764;28;20963;-71
2021/07/17 08:43:08;;;;;;;26.80;22.17;;;21.10;99.90;;;;;;5024821;28;20465;-70
2021/07/17 08:45:38;;;;;;;30.87;21.30;;;21.40;99.90;;;;;;5022933;28;20463;-73
2021/07/17 08:48:09;;;;;;;25.17;21.70;;;21.40;99.90;;;;;;5023991;28;20465;-73
2021/07/17 08:50:38;;;;;;;31.73;22.67;;;21.20;99.90;;;;;;5021574;28;20461;-70
2021/07/17 08:53:06;;;;;;;32.80;20.97;;;21.40;99.90;;;;;;5026032;28;20461;-71
2021/07/17 08:55:34;;;;;;;24.27;21.77;;;22.20;99.90;;;;;;5022063;28;20496;-72
2021/07/17 08:58:01;;;;;;;26.10;21.40;;;22.50;99.90;;;;;;5025765;28;20464;-70
2021/07/17 09:00:31;;;;;;;23.87;21.10;;;22.40;99.90;;;;;;5023577;28;20457;-71
2021/07/17 09:03:00;;;;;;;31.73;20.03;;;22.60;99.90;;;;;;5021576;28;20465;-70
2021/07/17 09:05:30;;;;;;;23.43;20.03;;;22.70;99.90;;;;;;5019970;28;20476;-72
2021/07/17 09:08:00;;;;;;;22.07;20.00;;;22.90;99.90;;;;;;5023238;28;21183;-71
2021/07/17 09:10:34;;;;;;;21.10;18.80;;;22.90;99.90;;;;;;5020711;28;20967;-74
2021/07/17 09:13:22;;;;;;;20.80;18.90;;;23.40;99.90;;;;;;5022182;28;20472;-71
2021/07/17 09:16:01;;;;;;;21.90;19.83;;;24.20;99.90;;;;;;5020325;28;20784;-69
2021/07/17 09:18:33;;;;;;;22.43;19.07;;;24.30;99.90;;;;;;5018868;28;20500;-71
2021/07/17 09:21:05;;;;;;;25.27;21.03;;;24.10;99.90;;;;;;5015979;28;20472;-69
2021/07/17 09:23:35;;;;;;;22.87;18.77;;;23.90;99.90;;;;;;5018293;28;20789;-73
2021/07/17 09:26:16;;;;;;;21.07;18.80;;;24.20;99.90;;;;;;5018161;28;20475;-70
2021/07/17 09:28:54;;;;;;;20.07;18.17;;;25.10;99.90;;;;;;5021646;28;21001;-72
2021/07/17 09:31:22;;;;;;;20.47;18.33;;;25.80;99.90;;;;;;5025615;28;20518;-70
2021/07/17 09:33:50;;;;;;;21.83;19.03;;;25.40;99.90;;;;;;5023740;28;20492;-72
2021/07/17 09:36:18;;;;;;;20.97;18.80;;;26.10;99.90;;;;;;5021161;28;20464;-70
2021/07/17 09:38:51;;;;;;;21.43;18.13;;;26.60;99.90;;;;;;5017808;28;20481;-70
2021/07/17 09:41:22;;;;;;;19.63;17.33;;;27.20;99.90;;;;;;5022067;28;20464;-73
2021/07/17 09:44:01;;;;;;;21.20;18.23;;;27.70;99.90;;;;;;5022141;28;20971;-71
2021/07/17 09:46:30;;;;;;;19.50;17.73;;;27.70;99.90;;;;;;5023759;28;20548;-71
2021/07/17 09:48:58;;;;;;;21.37;19.13;;;27.70;99.90;;;;;;5019992;28;20547;-71
2021/07/17 09:51:28;;;;;;;20.37;18.30;;;27.40;99.90;;;;;;5023076;28;20477;-71
2021/07/17 09:53:59;;;;;;;21.50;19.20;;;27.90;99.90;;;;;;5014978;28;20485;-70
2021/07/17 09:56:27;;;;;;;24.83;18.53;;;28.00;99.90;;;;;;5015355;28;20469;-71
2021/07/17 09:58:55;;;;;;;26.73;20.33;;;26.80;99.90;;;;;;5012809;28;20476;-71
2021/07/17 10:01:27;;;;;;;19.33;17.83;;;26.60;99.90;;;;;;5021730;28;20457;-73
2021/07/17 10:04:06;;;;;;;18.53;17.07;;;27.20;99.90;;;;;;5015067;28;20626;-72
2021/07/17 10:06:36;;;;;;;20.83;18.70;;;27.50;99.90;;;;;;5028505;28;20472;-70
2021/07/17 10:09:06;;;;;;;18.43;17.03;;;27.70;99.90;;;;;;5029921;28;20711;-73
2021/07/17 10:11:34;;;;;;;19.20;17.80;;;27.70;99.90;;;;;;5029514;28;20468;-70
2021/07/17 10:14:17;;;;;;;18.83;17.27;;;28.20;99.90;;;;;;5029658;28;20488;-71
2021/07/17 10:16:45;;;;;;;18.97;17.47;;;28.80;99.90;;;;;;5030393;28;20472;-71
2021/07/17 10:19:14;;;;;;;20.00;17.90;;;28.90;99.90;;;;;;5033370;28;20456;-70
2021/07/17 10:21:42;;;;;;;18.90;17.50;;;28.60;99.90;;;;;;5026313;28;21042;-70
2021/07/17 10:24:12;;;;;;;20.47;18.20;;;28.10;99.90;;;;;;5029040;28;20459;-71
2021/07/17 10:26:40;;;;;;;18.87;17.10;;;28.30;99.90;;;;;;5029701;28;20548;-72
2021/07/17 10:29:09;;;;;;;19.73;17.70;;;28.10;99.90;;;;;;5028266;28;20461;-71
2021/07/17 10:31:36;;;;;;;19.57;17.40;;;27.10;99.90;;;;;;5031929;28;21204;-71
2021/07/17 10:34:04;;;;;;;18.87;17.03;;;27.30;99.90;;;;;;5025492;28;20480;-74
2021/07/17 10:36:31;;;;;;;18.67;17.20;;;27.20;99.90;;;;;;5029815;28;20463;-71
2021/07/17 10:39:01;;;;;;;18.50;17.20;;;27.90;99.90;;;;;;5028834;28;20900;-74
2021/07/17 10:41:33;;;;;;;19.90;17.77;;;28.20;99.90;;;;;;5028378;28;20471;-72
2021/07/17 10:44:00;;;;;;;21.20;17.27;;;28.20;99.90;;;;;;5034393;28;20456;-71
2021/07/17 10:46:32;;;;;;;18.87;17.10;;;28.30;99.90;;;;;;5031438;28;21151;-71
2021/07/17 10:49:01;;;;;;;17.87;16.40;;;28.00;99.90;;;;;;5033207;28;20464;-71
2021/07/17 10:51:33;;;;;;;18.20;16.70;;;28.10;99.90;;;;;;5030175;28;20486;-71
2021/07/17 10:54:03;;;;;;;17.77;16.23;;;28.30;99.90;;;;;;5029704;28;20463;-71
2021/07/17 10:56:53;;;;;;;18.30;17.00;;;27.90;99.90;;;;;;5030353;28;20576;-73
2021/07/17 10:59:48;;;;;;;18.07;16.57;;;27.70;99.90;;;;;;5033184;28;20905;-71
2021/07/17 11:02:25;;;;;;;18.30;16.53;;;28.40;99.90;;;;;;5028650;28;20539;-71
2021/07/17 11:05:01;;;;;;;17.67;16.27;;;28.00;99.90;;;;;;5031185;28;20456;-71
2021/07/17 11:07:32;;;;;;;18.80;17.40;;;28.00;99.90;;;;;;5028161;28;20501;-72
2021/07/17 11:10:01;;;;;;;17.47;16.17;;;28.40;99.90;;;;;;5028996;28;20469;-71
2021/07/17 11:12:31;;;;;;;18.37;16.60;;;28.20;99.90;;;;;;5029633;28;20467;-73
2021/07/17 11:15:31;;;;;;;19.13;17.33;;;28.30;99.90;;;;;;5031694;28;20844;-74
2021/07/17 11:17:58;;;;;;;20.30;16.30;;;28.70;99.90;;;;;;5033405;28;20488;-72
2021/07/17 11:20:29;;;;;;;17.60;16.00;;;29.20;99.90;;;;;;5031034;28;20478;-72
2021/07/17 11:23:01;;;;;;;17.30;16.00;;;29.10;99.90;;;;;;5029339;28;20550;-73
2021/07/17 11:25:28;;;;;;;17.73;16.53;;;28.40;99.90;;;;;;5027045;28;20471;-73
2021/07/17 11:27:57;;;;;;;17.13;15.70;;;28.50;99.90;;;;;;5031444;28;20854;-73
2021/07/17 11:30:25;;;;;;;17.80;16.40;;;28.70;99.90;;;;;;5029224;28;20456;-74
2021/07/17 11:33:15;;;;;;;17.63;16.53;;;28.80;99.90;;;;;;5027655;28;20470;-73
2021/07/17 11:35:44;;;;;;;16.60;15.33;;;29.30;99.90;;;;;;5023262;28;20480;-73
2021/07/17 11:42:08;;;;;;;16.73;15.60;;;29.00;99.90;;;;;;4974237;28;20462;-73
2021/07/17 11:45:21;;;;;;;17.47;16.30;;;29.30;99.90;;;;;;4973330;28;20450;-74
2021/07/17 11:48:17;;;;;;;17.60;16.37;;;29.40;99.90;;;;;;5010860;28;20456;-73
2021/07/17 11:50:45;;;;;;;17.30;16.10;;;29.20;99.90;;;;;;5013348;28;20460;-74
2021/07/17 11:53:31;;;;;;;16.33;15.30;;;29.00;99.90;;;;;;5068276;28;20462;-73
2021/07/17 11:55:59;;;;;;;16.83;15.73;;;29.20;99.90;;;;;;5079635;28;20841;-73
2021/07/17 11:58:38;;;;;;;17.03;16.03;;;28.60;99.90;;;;;;5078077;28;20470;-74
2021/07/17 12:01:06;;;;;;;17.13;15.90;;;29.10;99.90;;;;;;5079951;28;20481;-73
2021/07/17 12:03:56;;;;;;;16.80;15.70;;;29.60;99.90;;;;;;5081177;28;21179;-74
2021/07/17 12:06:24;;;;;;;17.97;16.30;;;29.50;99.90;;;;;;5076438;28;20964;-73
2021/07/17 12:08:51;;;;;;;17.87;16.43;;;29.40;99.90;;;;;;5075757;28;20980;-73
2021/07/17 12:15:06;;;;;;;17.77;16.57;;;29.00;99.90;;;;;;5075947;28;20459;-74
2021/07/17 12:17:34;;;;;;;17.27;15.67;;;29.40;99.90;;;;;;5078973;28;20565;-74
2021/07/17 12:20:14;;;;;;;17.87;16.70;;;30.00;99.90;;;;;;5084933;28;20466;-74
2021/07/17 12:23:11;;;;;;;16.37;14.63;;;30.10;99.90;;;;;;5073133;28;21206;-74
2021/07/17 12:25:40;;;;;;;16.93;15.60;;;29.90;99.90;;;;;;5081653;28;20458;-74
2021/07/17 12:28:13;;;;;;;17.40;16.10;;;29.30;99.90;;;;;;5079617;28;20561;-74
2021/07/17 12:30:42;;;;;;;16.47;15.27;;;29.50;99.90;;;;;;5076070;28;20458;-75
2021/07/17 12:33:11;;;;;;;16.63;15.47;;;30.20;99.90;;;;;;5077509;28;20520;-75
2021/07/17 12:35:39;;;;;;;17.23;16.23;;;30.80;99.90;;;;;;5079270;28;20504;-74
2021/07/17 12:38:55;;;;;;;18.93;16.90;;;30.30;99.90;;;;;;5081356;28;20496;-74
2021/07/17 12:41:24;;;;;;;18.37;16.63;;;29.80;99.90;;;;;;5080783;28;20505;-74
2021/07/17 12:43:52;;;;;;;17.27;16.10;;;29.40;99.90;;;;;;5083292;28;20466;-75
2021/07/17 12:46:22;;;;;;;18.20;16.80;;;30.20;99.90;;;;;;5082719;28;20820;-73